Time;durP1;ratioP1;P1;durP2;ratioP2;P2;SDS_P1;SDS_P2;PMS_P1;PMS_P2;Temp;Humidity;BMP_temperature;BMP_pressure;BME280_temperature;BME280_humidity;BME280_pressure;Samples;Min_cycle;Max_cycle;Signal;HPM_P1;HPM_P2
2021/05/18 00:00:29;;;;;;;16.68;12.89;;;;;;;;;;359588;147;857293;-62
2021/05/18 00:01:31;;;;;;;14.56;12.30;;;;;;;;;;361538;145;857457;-62
2021/05/18 00:02:32;;;;;;;15.12;12.97;;;;;;;;;;361066;147;865085;-62
2021/05/18 00:03:34;;;;;;;15.86;12.84;;;;;;;;;;364270;146;857446;-62
2021/05/18 00:04:35;;;;;;;13.56;12.09;;;;;;;;;;364912;145;857363;-61
2021/05/18 00:05:38;;;;;;;16.52;12.52;;;;;;;;;;362248;147;866818;-62
2021/05/18 00:06:41;;;;;;;15.22;12.09;;;;;;;;;;361523;145;857463;-62
2021/05/18 00:07:52;;;;;;;15.38;12.69;;;;;;;;;;364286;147;857372;-62
2021/05/18 00:12:47;;;;;;;14.19;12.21;;;;;;;;;;363303;147;857446;-61
2021/05/18 00:13:49;;;;;;;13.40;11.59;;;;;;;;;;359257;150;866683;-62
2021/05/18 00:14:51;;;;;;;15.40;12.19;;;;;;;;;;363688;145;865149;-62
2021/05/18 00:15:54;;;;;;;14.26;11.85;;;;;;;;;;359293;150;857376;-61
2021/05/18 00:16:57;;;;;;;15.47;12.86;;;;;;;;;;363057;145;857178;-62
2021/05/18 00:17:59;;;;;;;15.13;12.33;;;;;;;;;;363198;145;857247;-62
2021/05/18 00:19:01;;;;;;;16.40;13.36;;;;;;;;;;361496;144;857306;-62
2021/05/18 00:20:04;;;;;;;15.43;12.57;;;;;;;;;;361316;145;866539;-60
2021/05/18 00:21:06;;;;;;;16.41;13.28;;;;;;;;;;363085;148;857276;-63
2021/05/18 00:22:07;;;;;;;16.94;12.16;;;;;;;;;;361224;146;857307;-61
2021/05/18 00:23:09;;;;;;;14.73;12.96;;;;;;;;;;362853;145;860909;-62
2021/05/18 00:24:11;;;;;;;15.23;11.87;;;;;;;;;;361719;148;859025;-62
2021/05/18 00:25:12;;;;;;;12.98;11.20;;;;;;;;;;361366;144;858354;-62
2021/05/18 00:26:16;;;;;;;15.69;10.99;;;;;;;;;;364231;146;865179;-61
2021/05/18 00:27:19;;;;;;;14.75;11.74;;;;;;;;;;359874;147;866208;-62
2021/05/18 00:28:21;;;;;;;13.78;12.29;;;;;;;;;;363247;144;860332;-62
2021/05/18 00:29:23;;;;;;;13.29;11.58;;;;;;;;;;364239;147;858671;-62
2021/05/18 00:30:26;;;;;;;13.51;10.89;;;;;;;;;;363771;144;858429;-61
2021/05/18 00:31:27;;;;;;;13.49;9.79;;;;;;;;;;362859;144;859458;-61
2021/05/18 00:32:29;;;;;;;11.07;9.58;;;;;;;;;;361564;148;858057;-61
2021/05/18 00:33:32;;;;;;;10.74;9.59;;;;;;;;;;361535;144;857918;-62
2021/05/18 00:34:34;;;;;;;13.41;10.46;;;;;;;;;;359798;148;857377;-62
2021/05/18 00:35:36;;;;;;;14.00;9.97;;;;;;;;;;361986;146;857283;-61
2021/05/18 00:36:38;;;;;;;14.06;10.62;;;;;;;;;;361347;144;860626;-61
2021/05/18 00:44:06;;;;;;;14.34;8.18;;;;;;;12.74;69.67;98525.23;372796;142;874073;-62
2021/05/18 00:45:08;;;;;;;9.75;8.29;;;;;;;;;;361449;147;857191;-61
2021/05/18 00:46:11;;;;;;;10.28;7.47;;;;;;;;;;364899;147;859538;-62
2021/05/18 00:47:13;;;;;;;11.73;9.12;;;;;;;;;;363535;145;866194;-62
2021/05/18 00:48:15;;;;;;;12.10;9.36;;;;;;;;;;364666;145;859742;-62
2021/05/18 00:49:17;;;;;;;11.85;9.59;;;;;;;;;;367560;145;865109;-62
2021/05/18 00:50:19;;;;;;;11.19;9.40;;;;;;;;;;362009;145;857374;-62
2021/05/18 00:51:21;;;;;;;15.58;10.00;;;;;;;;;;359505;150;858730;-62
2021/05/18 00:52:23;;;;;;;11.95;10.10;;;;;;;;;;361084;145;865039;-62
2021/05/18 00:53:25;;;;;;;12.61;10.91;;;;;;;;;;362529;145;857653;-62
2021/05/18 00:54:36;;;;;;;13.89;11.24;;;;;;;;;;363832;144;857256;-62
2021/05/18 00:59:01;;;;;;;15.33;11.20;;;;;;;;;;370498;145;857208;-62
2021/05/18 01:00:03;;;;;;;15.43;12.48;;;;;;;;;;365357;146;859085;-62
2021/05/18 01:01:16;;;;;;;16.89;13.57;;;;;;;;;;368310;145;857225;-62
2021/05/18 01:02:16;;;;;;;16.28;12.89;;;;;;;;;;370960;145;858790;-62
2021/05/18 01:03:17;;;;;;;18.09;13.53;;;;;;;;;;365852;145;858357;-62
2021/05/18 01:04:20;;;;;;;14.28;11.75;;;;;;;;;;362550;148;864996;-62
2021/05/18 01:06:18;;;;;;;13.87;11.26;;;;;;;;;;363133;146;857261;-62
2021/05/18 01:06:29;;;;;;;14.82;10.90;;;;;;;;;;361060;145;865734;-61
2021/05/18 01:07:30;;;;;;;12.23;10.36;;;;;;;;;;364205;147;865693;-62
2021/05/18 01:08:32;;;;;;;14.64;10.97;;;;;;;;;;362070;145;858311;-61
2021/05/18 01:09:34;;;;;;;14.22;11.30;;;;;;;;;;359639;147;865495;-61
2021/05/18 01:10:36;;;;;;;14.98;11.88;;;;;;;;;;359359;149;857803;-61
2021/05/18 01:11:39;;;;;;;20.23;12.71;;;;;;;;;;362639;145;857386;-61
2021/05/18 01:12:41;;;;;;;22.79;12.48;;;;;;;;;;362484;148;857302;-61
2021/05/18 01:13:42;;;;;;;51.34;14.56;;;;;;;;;;364890;145;864845;-61
2021/05/18 01:14:44;;;;;;;42.37;14.72;;;;;;;;;;363536;145;865000;-61
2021/05/18 01:15:45;;;;;;;14.11;10.43;;;;;;;;;;365893;147;866348;-62
2021/05/18 01:16:48;;;;;;;16.09;11.06;;;;;;;;;;365391;145;866805;-61
2021/05/18 01:17:50;;;;;;;15.03;9.49;;;;;;;;;;363001;148;865097;-62
2021/05/18 01:18:51;;;;;;;13.53;10.19;;;;;;;;;;359457;148;858479;-62
2021/05/18 01:19:53;;;;;;;30.14;11.13;;;;;;;;;;363419;145;858770;-62
2021/05/18 01:20:56;;;;;;;38.45;12.11;;;;;;;;;;365865;147;866402;-62
2021/05/18 01:22:00;;;;;;;78.86;14.48;;;;;;;;;;363210;146;859545;-62
2021/05/18 01:23:01;;;;;;;119.87;15.62;;;;;;;;;;362911;145;858782;-62
2021/05/18 01:24:04;;;;;;;102.31;13.44;;;;;;;;;;359350;150;859216;-62
2021/05/18 01:25:06;;;;;;;110.49;13.29;;;;;;;;;;364635;145;857418;-62
2021/05/18 01:26:08;;;;;;;133.55;16.43;;;;;;;;;;363884;145;865592;-62
2021/05/18 01:27:10;;;;;;;23.45;12.82;;;;;;;;;;360834;145;859521;-62
2021/05/18 01:28:11;;;;;;;33.79;12.56;;;;;;;;;;362899;145;857451;-63
2021/05/18 01:29:13;;;;;;;72.54;14.31;;;;;;;;;;359487;150;865005;-62
2021/05/18 01:30:17;;;;;;;81.41;12.88;;;;;;;;;;362333;146;857424;-62
2021/05/18 01:31:22;;;;;;;75.25;14.04;;;;;;;;;;362567;147;857919;-62
2021/05/18 01:32:25;;;;;;;65.29;14.29;;;;;;;;;;365021;146;859849;-62
2021/05/18 01:33:26;;;;;;;97.56;14.70;;;;;;;;;;364741;145;857181;-61
2021/05/18 01:34:28;;;;;;;81.64;14.44;;;;;;;;;;363106;145;857794;-62
2021/05/18 01:35:29;;;;;;;165.43;15.86;;;;;;;;;;361989;146;865289;-62
2021/05/18 01:36:32;;;;;;;103.87;13.41;;;;;;;;;;363466;144;858827;-62
2021/05/18 01:37:34;;;;;;;121.61;16.72;;;;;;;;;;363483;148;865780;-62
2021/05/18 01:38:44;;;;;;;94.12;13.12;;;;;;;;;;363799;145;858991;-62
2021/05/18 01:39:59;;;;;;;84.70;12.34;;;;;;;;;;362507;148;857783;-62
2021/05/18 01:43:34;;;;;;;120.43;13.65;;;;;;;;;;360952;145;857295;-61
2021/05/18 01:44:36;;;;;;;156.72;15.59;;;;;;;;;;363093;145;861006;-61
2021/05/18 01:45:37;;;;;;;132.41;14.64;;;;;;;;;;362909;147;865010;-61
2021/05/18 01:46:40;;;;;;;110.61;13.31;;;;;;;;;;364243;145;865007;-61
2021/05/18 01:47:47;;;;;;;33.35;11.67;;;;;;;;;;364712;147;857690;-61
2021/05/18 01:48:48;;;;;;;59.87;11.73;;;;;;;;;;364758;145;857403;-62
2021/05/18 01:49:48;;;;;;;43.52;11.59;;;;;;;;;;365475;145;859585;-61
2021/05/18 01:50:51;;;;;;;144.52;13.63;;;;;;;;;;365316;144;857932;-61
2021/05/18 01:51:54;;;;;;;93.28;12.66;;;;;;;;;;364304;145;857281;-61
2021/05/18 01:52:56;;;;;;;78.57;11.75;;;;;;;;;;368485;146;857296;-61
2021/05/18 01:53:59;;;;;;;48.70;11.19;;;;;;;;;;362394;145;859800;-61
2021/05/18 01:55:00;;;;;;;87.19;13.59;;;;;;;;;;363590;145;865145;-61
2021/05/18 01:57:18;;;;;;;53.97;12.43;;;;;;;;;;361607;145;864241;-62
2021/05/18 01:58:19;;;;;;;45.06;10.87;;;;;;;;;;360446;147;856781;-62
2021/05/18 01:59:21;;;;;;;64.93;12.43;;;;;;;;;;361505;147;856209;-62
2021/05/18 02:00:25;;;;;;;31.99;11.58;;;;;;;;;;364172;145;863873;-62
2021/05/18 02:01:27;;;;;;;29.55;10.45;;;;;;;;;;363126;145;864453;-62
2021/05/18 02:04:34;;;;;;;15.40;9.60;;;;;;;13.02;72.31;98482.55;375468;142;882303;-62
2021/05/18 02:05:38;;;;;;;15.32;7.27;;;;;;;12.94;71.98;98480.25;366579;144;857311;-62
2021/05/18 02:06:40;;;;;;;9.31;7.43;;;;;;;12.97;71.67;98485.32;366052;147;857376;-62
2021/05/18 02:07:43;;;;;;;16.42;7.19;;;;;;;12.99;71.44;98476.57;366128;144;861418;-62
2021/05/18 02:08:45;;;;;;;11.61;5.90;;;;;;;13.04;70.42;98480.73;368008;144;863920;-63
2021/05/18 02:09:47;;;;;;;9.31;6.29;;;;;;;13.09;70.54;98482.21;367245;144;856422;-63
2021/05/18 02:10:49;;;;;;;7.78;5.68;;;;;;;;;;366145;144;863761;-63
2021/05/18 02:11:51;;;;;;;11.74;6.36;;;;;;;;;;366860;144;856885;-63
2021/05/18 02:12:55;;;;;;;12.31;6.66;;;;;;;;;;366640;144;863857;-63
2021/05/18 02:13:59;;;;;;;13.08;6.72;;;;;;;;;;367253;144;857018;-62
2021/05/18 02:15:23;;;;;;;9.84;7.11;;;;;;;;;;369408;144;856309;-62
2021/05/18 02:16:18;;;;;;;10.26;6.99;;;;;;;;;;360499;147;856376;-62
2021/05/18 02:17:31;;;;;;;9.62;7.74;;;;;;;;;;367851;144;856484;-62
2021/05/18 02:20:37;;;;;;;12.19;8.70;;;;;;;;;;366482;144;864707;-61
2021/05/18 02:24:42;;;;;;;9.80;8.68;;;;;;;13.71;69.41;98479.62;378345;141;882850;-59
2021/05/18 02:25:39;;;;;;;9.96;8.75;;;;;;;13.60;69.40;98476.65;368597;144;859009;-59
2021/05/18 02:26:42;;;;;;;9.69;8.63;;;;;;;13.54;69.46;98472.55;370863;144;866865;-59
2021/05/18 02:27:44;;;;;;;11.31;9.07;;;;;;;13.44;69.81;98472.12;359880;146;867289;-59
2021/05/18 02:28:46;;;;;;;10.26;8.81;;;;;;;13.39;70.17;98470.59;366118;144;857264;-60
2021/05/18 02:29:48;;;;;;;11.04;7.13;;;;;;;13.35;70.45;98474.23;367676;145;857710;-60
2021/05/18 02:30:50;;;;;;;25.21;6.43;;;;;;;13.35;70.45;98474.23;366736;144;859023;-59
2021/05/18 02:31:55;;;;;;;23.57;7.08;;;;;;;13.35;71.10;98462.09;366051;146;858686;-60
2021/05/18 02:32:55;;;;;;;31.08;6.12;;;;;;;;;;365919;144;857351;-59
2021/05/18 02:33:57;;;;;;;27.22;6.29;;;;;;;;;;366724;144;865218;-59
2021/05/18 02:34:59;;;;;;;19.00;7.27;;;;;;;;;;366098;144;859799;-59
2021/05/18 02:36:01;;;;;;;19.38;7.29;;;;;;;;;;367251;144;858327;-60
2021/05/18 02:37:03;;;;;;;17.37;7.10;;;;;;;;;;366859;144;866802;-59
2021/05/18 02:38:05;;;;;;;22.76;7.19;;;;;;;;;;365967;147;867183;-60
2021/05/18 02:39:07;;;;;;;22.83;7.82;;;;;;;;;;365892;144;857381;-59
2021/05/18 02:40:14;;;;;;;14.74;8.07;;;;;;;;;;371545;144;857387;-61
2021/05/18 02:41:14;;;;;;;13.81;8.33;;;;;;;;;;370983;144;857837;-60
2021/05/18 02:42:16;;;;;;;13.56;8.27;;;;;;;;;;363170;144;858041;-61
2021/05/18 02:43:25;;;;;;;9.31;8.37;;;;;;;;;;360772;147;863293;-59
2021/05/18 02:44:37;;;;;;;12.54;8.66;;;;;;;;;;360426;145;859278;-60
2021/05/18 02:45:35;;;;;;;10.50;9.28;;;;;;;;;;359982;144;858113;-60
2021/05/18 02:49:17;;;;;;;;;;;;;;;;;;366953;147;856714;-60
2021/05/18 02:50:20;;;;;;;8.43;7.61;;;;;;;;;;363913;145;857372;-60
2021/05/18 02:51:22;;;;;;;10.20;8.62;;;;;;;;;;362064;147;865407;-60
2021/05/18 02:52:23;;;;;;;9.24;8.34;;;;;;;;;;362562;147;866787;-59
2021/05/18 02:53:25;;;;;;;8.91;8.11;;;;;;;;;;364187;145;857184;-59
2021/05/18 02:54:27;;;;;;;9.87;8.78;;;;;;;;;;364771;147;866778;-59
2021/05/18 02:55:38;;;;;;;9.09;8.19;;;;;;;;;;362639;147;857239;-60
2021/05/18 02:56:46;;;;;;;9.56;8.59;;;;;;;;;;360260;146;857505;-59
2021/05/18 02:57:43;;;;;;;9.28;8.36;;;;;;;;;;360147;149;865033;-59
2021/05/18 02:58:58;;;;;;;9.46;8.56;;;;;;;;;;359892;147;857274;-60
2021/05/18 02:59:51;;;;;;;9.81;8.87;;;;;;;;;;362978;147;859447;-61
2021/05/18 03:00:53;;;;;;;9.17;8.30;;;;;;;;;;367531;145;859810;-60
2021/05/18 03:01:57;;;;;;;9.62;8.64;;;;;;;;;;365925;145;864958;-60
2021/05/18 03:02:58;;;;;;;9.86;8.91;;;;;;;;;;362619;145;857357;-60
2021/05/18 03:04:00;;;;;;;9.29;8.39;;;;;;;;;;362500;147;857935;-60
2021/05/18 03:05:03;;;;;;;10.64;8.80;;;;;;;;;;363402;146;857385;-60
2021/05/18 03:06:04;;;;;;;9.57;8.63;;;;;;;;;;359152;150;864999;-59
2021/05/18 03:07:06;;;;;;;9.47;8.47;;;;;;;;;;359638;145;857163;-59
2021/05/18 03:08:08;;;;;;;9.47;8.56;;;;;;;;;;363303;147;859060;-59
2021/05/18 03:09:11;;;;;;;9.19;8.35;;;;;;;;;;361823;145;865956;-60
2021/05/18 03:10:15;;;;;;;9.55;8.42;;;;;;;;;;359626;146;857878;-59
2021/05/18 03:11:17;;;;;;;11.25;8.37;;;;;;;;;;363177;145;858908;-59
2021/05/18 03:12:18;;;;;;;10.05;8.92;;;;;;;;;;361253;145;857347;-59
2021/05/18 03:13:20;;;;;;;9.02;8.21;;;;;;;;;;355314;149;866913;-60
2021/05/18 03:14:22;;;;;;;9.77;8.77;;;;;;;;;;363337;147;858149;-59
2021/05/18 03:15:23;;;;;;;10.67;8.72;;;;;;;;;;362280;147;859013;-59
2021/05/18 03:16:25;;;;;;;9.60;8.57;;;;;;;;;;361761;146;866792;-60
2021/05/18 03:17:27;;;;;;;10.17;8.86;;;;;;;;;;359324;150;858586;-60
2021/05/18 03:18:29;;;;;;;11.48;9.40;;;;;;;;;;360977;145;857456;-60
2021/05/18 03:19:30;;;;;;;11.45;8.29;;;;;;;;;;362866;147;857268;-60
2021/05/18 03:20:32;;;;;;;8.73;7.87;;;;;;;;;;361861;147;857473;-64
2021/05/18 03:21:34;;;;;;;11.18;8.71;;;;;;;;;;363516;145;857509;-59
2021/05/18 03:22:35;;;;;;;10.75;8.76;;;;;;;;;;362995;147;864963;-60
2021/05/18 03:23:37;;;;;;;10.63;8.43;;;;;;;;;;362562;145;857308;-60
2021/05/18 03:24:42;;;;;;;9.65;8.64;;;;;;;;;;361762;145;857951;-60
2021/05/18 03:25:42;;;;;;;11.09;9.19;;;;;;;;;;361757;147;857912;-61
2021/05/18 03:26:49;;;;;;;9.31;8.29;;;;;;;;;;359346;145;858673;-61
2021/05/18 03:27:48;;;;;;;12.14;8.71;;;;;;;;;;363484;147;865419;-60
2021/05/18 03:28:57;;;;;;;9.89;8.73;;;;;;;;;;365527;147;857778;-60
2021/05/18 03:29:53;;;;;;;9.57;8.57;;;;;;;;;;361748;145;857362;-60
2021/05/18 03:34:38;;;;;;;10.05;8.97;;;;;;;;;;361353;147;865030;-59
2021/05/18 03:35:40;;;;;;;9.54;8.56;;;;;;;;;;364661;146;857767;-60
2021/05/18 03:36:42;;;;;;;11.49;9.04;;;;;;;;;;363636;147;865042;-59
2021/05/18 03:37:52;;;;;;;12.93;9.44;;;;;;;;;;362064;144;857347;-60
2021/05/18 03:38:54;;;;;;;13.16;9.42;;;;;;;;;;362593;145;857871;-60
2021/05/18 03:39:59;;;;;;;10.98;9.30;;;;;;;;;;364774;147;857830;-59
2021/05/18 03:41:02;;;;;;;9.90;8.88;;;;;;;;;;365423;147;857270;-61
2021/05/18 03:42:16;;;;;;;10.19;9.14;;;;;;;;;;360266;146;857512;-60
2021/05/18 03:43:36;;;;;;;10.66;9.22;;;;;;;;;;365489;145;865056;-62
2021/05/18 03:45:45;;;;;;;10.36;8.58;;;;;;;;;;364463;147;859587;-60
2021/05/18 03:54:39;;;;;;;9.91;8.91;;;;;;;;;;361683;145;865731;-61
2021/05/18 03:58:37;;;;;;;11.01;9.15;;;;;;;;;;363137;147;857375;-63
2021/05/18 04:03:48;;;;;;;12.78;9.27;;;;;;;;;;358809;150;865520;-59
2021/05/18 04:04:54;;;;;;;10.84;9.43;;;;;;;;;;361797;146;865778;-61
2021/05/18 04:12:16;;;;;;;11.38;9.49;;;;;;;;;;365117;147;858532;-59
2021/05/18 04:16:59;;;;;;;12.59;9.72;;;;;;;;;;361219;146;861559;-62
2021/05/18 04:18:09;;;;;;;10.62;9.31;;;;;;;;;;362786;145;864847;-60
2021/05/18 04:19:10;;;;;;;13.15;9.43;;;;;;;;;;362025;146;857726;-59
2021/05/18 04:24:05;;;;;;;10.22;9.17;;;;;;;;;;360308;145;856732;-58
2021/05/18 04:26:36;;;;;;;10.18;9.15;;;;;;;;;;353172;150;856591;-58
2021/05/18 04:39:32;;;;;;;10.87;8.36;;;;;;;;;;362084;147;856670;-60
2021/05/18 04:49:53;;;;;;;12.53;8.34;;;;;;;;;;358845;148;857829;-60
2021/05/18 04:51:30;;;;;;;14.64;9.69;;;;;;;;;;360622;146;856988;-60
2021/05/18 04:52:34;;;;;;;12.73;9.70;;;;;;;;;;359698;147;863993;-62
2021/05/18 04:54:01;;;;;;;11.23;8.34;;;;;;;;;;361640;146;856364;-59
2021/05/18 04:59:53;;;;;;;14.31;8.88;;;;;;;;;;360181;146;856259;-58
2021/05/18 05:00:57;;;;;;;13.83;9.43;;;;;;;;;;357882;146;856606;-59
2021/05/18 05:06:59;;;;;;;11.61;8.49;;;;;;;;;;359225;147;856586;-63
2021/05/18 05:08:08;;;;;;;11.48;9.61;;;;;;;;;;362024;148;863932;-65
2021/05/18 05:10:14;;;;;;;13.69;8.98;;;;;;;;;;361274;148;856580;-61
2021/05/18 05:14:42;;;;;;;12.78;8.86;;;;;;;;;;357551;147;856735;-59
2021/05/18 05:15:46;;;;;;;12.23;9.10;;;;;;;;;;359334;147;856330;-60
2021/05/18 05:16:48;;;;;;;12.52;9.59;;;;;;;;;;356042;151;856106;-60
2021/05/18 05:17:49;;;;;;;11.47;8.26;;;;;;;;;;359527;147;856732;-60
2021/05/18 05:18:51;;;;;;;10.71;7.74;;;;;;;;;;359858;147;864402;-59
2021/05/18 05:19:52;;;;;;;11.01;8.36;;;;;;;;;;358947;148;856522;-60
2021/05/18 05:20:54;;;;;;;13.04;8.37;;;;;;;;;;359045;146;864269;-59
2021/05/18 05:21:56;;;;;;;10.57;8.34;;;;;;;;;;360349;146;863999;-61
2021/05/18 05:22:58;;;;;;;11.75;8.30;;;;;;;;;;361364;149;856683;-59
2021/05/18 05:23:59;;;;;;;10.73;7.81;;;;;;;;;;359985;147;863901;-59
2021/05/18 05:25:01;;;;;;;11.59;8.26;;;;;;;;;;359910;148;864014;-59
2021/05/18 05:26:03;;;;;;;10.73;8.58;;;;;;;;;;363401;145;863817;-61
2021/05/18 05:27:04;;;;;;;9.69;7.77;;;;;;;;;;361081;147;863974;-59
2021/05/18 05:28:06;;;;;;;9.72;7.61;;;;;;;;;;362528;147;856854;-61
2021/05/18 05:29:08;;;;;;;11.51;7.29;;;;;;;;;;364750;145;856642;-60
2021/05/18 05:30:11;;;;;;;11.87;8.14;;;;;;;;;;363024;146;856319;-60
2021/05/18 05:31:13;;;;;;;9.44;7.80;;;;;;;;;;363440;145;864006;-60
2021/05/18 05:32:14;;;;;;;12.39;7.74;;;;;;;;;;365478;145;856371;-60
2021/05/18 05:33:16;;;;;;;9.71;7.91;;;;;;;;;;361473;147;856458;-60
2021/05/18 05:34:18;;;;;;;11.56;8.19;;;;;;;;;;362181;147;857052;-59
2021/05/18 05:35:20;;;;;;;9.08;7.51;;;;;;;;;;362679;146;856492;-61
2021/05/18 05:36:22;;;;;;;10.03;8.11;;;;;;;;;;364087;147;856663;-60
2021/05/18 05:37:25;;;;;;;8.69;7.71;;;;;;;;;;362413;145;863874;-60
2021/05/18 05:38:29;;;;;;;10.43;7.73;;;;;;;;;;359708;146;856348;-62
2021/05/18 05:39:30;;;;;;;10.87;8.33;;;;;;;;;;360100;147;856623;-60
2021/05/18 05:40:33;;;;;;;8.95;7.37;;;;;;;;;;362981;144;856357;-61
2021/05/18 05:41:35;;;;;;;9.77;7.78;;;;;;;;;;362953;146;856317;-59
2021/05/18 05:42:37;;;;;;;8.53;7.10;;;;;;;;;;362214;146;856902;-60
2021/05/18 05:43:38;;;;;;;10.84;7.44;;;;;;;;;;361621;144;864341;-60
2021/05/18 05:44:40;;;;;;;8.83;5.76;;;;;;;;;;359754;146;857187;-63
2021/05/18 05:45:42;;;;;;;11.23;5.88;;;;;;;;;;360950;147;856527;-61
2021/05/18 05:46:44;;;;;;;7.29;6.44;;;;;;;;;;362626;144;856534;-60
2021/05/18 05:47:45;;;;;;;7.71;5.64;;;;;;;;;;360507;147;856748;-60
2021/05/18 05:48:52;;;;;;;6.89;5.77;;;;;;;;;;362963;145;863988;-59
2021/05/18 05:49:50;;;;;;;7.69;5.99;;;;;;;;;;361500;146;863870;-60
2021/05/18 05:50:52;;;;;;;10.11;6.76;;;;;;;;;;361173;147;856915;-61
2021/05/18 05:51:54;;;;;;;9.52;6.39;;;;;;;;;;361508;147;863910;-64
2021/05/18 05:52:55;;;;;;;8.34;5.67;;;;;;;;;;363009;145;856608;-63
2021/05/18 05:54:00;;;;;;;7.02;6.09;;;;;;;;;;362880;145;863840;-61
2021/05/18 05:55:02;;;;;;;10.17;6.73;;;;;;;;;;361787;147;856619;-62
2021/05/18 05:56:04;;;;;;;8.47;6.95;;;;;;;;;;363143;147;856364;-59
2021/05/18 05:57:06;;;;;;;6.82;6.07;;;;;;;;;;346462;153;856261;-62
2021/05/18 05:58:08;;;;;;;9.28;6.69;;;;;;;;;;348055;150;856743;-61
2021/05/18 05:59:09;;;;;;;7.84;5.97;;;;;;;;;;361850;145;863928;-65
2021/05/18 06:00:12;;;;;;;9.31;6.95;;;;;;;;;;369149;144;856403;-65
2021/05/18 06:01:14;;;;;;;9.47;6.29;;;;;;;;;;363369;144;856513;-60
2021/05/18 06:02:16;;;;;;;8.60;6.31;;;;;;;;;;360319;147;856710;-64
2021/05/18 06:03:17;;;;;;;8.16;6.59;;;;;;;;;;362182;145;856714;-64
2021/05/18 06:04:19;;;;;;;8.40;6.48;;;;;;;;;;361948;145;864150;-60
2021/05/18 06:05:20;;;;;;;9.82;6.47;;;;;;;;;;361333;147;856404;-63
2021/05/18 06:06:22;;;;;;;7.59;5.83;;;;;;;;;;364397;145;856158;-62
2021/05/18 06:07:24;;;;;;;8.09;6.96;;;;;;;;;;362368;146;856166;-60
2021/05/18 06:08:26;;;;;;;8.78;6.86;;;;;;;;;;363541;144;856549;-61
2021/05/18 06:09:27;;;;;;;9.83;6.36;;;;;;;;;;355355;148;856475;-66
2021/05/18 06:10:42;;;;;;;7.34;5.62;;;;;;;;;;361530;147;863826;-64
2021/05/18 06:14:04;;;;;;;8.41;5.69;;;;;;;;;;363362;147;863682;-62
2021/05/18 06:16:59;;;;;;;10.89;7.27;;;;;;;;;;362635;144;856413;-61
2021/05/18 06:48:06;;;;;;;10.15;6.76;;;;;;;18.54;61.75;98481.71;363466;147;863954;-62
2021/05/18 06:49:07;;;;;;;8.05;6.74;;;;;;;18.65;61.57;98481.88;362325;145;863839;-62
2021/05/18 06:51:12;;;;;;;15.39;7.50;;;;;;;18.92;59.75;98482.78;362878;145;856694;-62
2021/05/18 06:52:13;;;;;;;12.25;7.02;;;;;;;18.94;60.17;98484.37;363005;146;856737;-62
2021/05/18 06:53:15;;;;;;;8.80;6.89;;;;;;;18.94;59.50;98484.37;363310;146;864141;-62
2021/05/18 06:54:17;;;;;;;11.17;6.39;;;;;;;18.88;59.44;98481.30;359280;150;864027;-62
2021/05/18 06:55:24;;;;;;;8.57;6.71;;;;;;;;;;364129;146;857022;-62
2021/05/18 06:56:31;;;;;;;7.49;6.61;;;;;;;;;;363320;147;856582;-61
2021/05/18 06:57:28;;;;;;;9.72;6.91;;;;;;;;;;360725;146;863615;-62
2021/05/18 07:00:58;;;;;;;10.73;7.78;;;;;;;;;;362904;146;856286;-62
2021/05/18 07:02:00;;;;;;;15.21;7.80;;;;;;;;;;363721;147;864558;-62
2021/05/18 07:03:03;;;;;;;14.16;9.12;;;;;;;;;;358373;148;863883;-61
2021/05/18 07:04:07;;;;;;;12.91;9.16;;;;;;;;;;359675;147;863858;-61
2021/05/18 07:05:17;;;;;;;14.14;8.13;;;;;;;;;;362096;148;863929;-62
2021/05/18 07:07:34;;;;;;;10.19;7.07;;;;;;;;;;362368;147;856367;-61
2021/05/18 07:09:37;;;;;;;10.77;7.71;;;;;;;;;;360088;147;856802;-62
2021/05/18 07:10:44;;;;;;;11.03;7.26;;;;;;;;;;354632;148;856825;-62
2021/05/18 07:11:46;;;;;;;11.13;8.11;;;;;;;;;;357876;147;856203;-62
2021/05/18 07:12:47;;;;;;;11.56;8.44;;;;;;;;;;358882;147;856933;-62
2021/05/18 07:13:49;;;;;;;13.11;8.97;;;;;;;;;;356481;148;863737;-62
2021/05/18 07:14:51;;;;;;;10.75;8.45;;;;;;;;;;357213;147;856422;-62
2021/05/18 07:15:52;;;;;;;16.22;8.58;;;;;;;;;;357979;147;864132;-62
2021/05/18 07:16:54;;;;;;;15.39;8.69;;;;;;;;;;356252;148;863942;-62
2021/05/18 07:17:56;;;;;;;21.85;8.42;;;;;;;;;;360183;147;863900;-62
2021/05/18 07:18:57;;;;;;;14.36;8.28;;;;;;;;;;361253;147;856537;-62
2021/05/18 07:19:59;;;;;;;15.39;9.19;;;;;;;;;;361851;148;856228;-62
2021/05/18 07:21:01;;;;;;;14.25;8.54;;;;;;;;;;358481;147;856881;-62
2021/05/18 07:24:09;;;;;;;13.84;8.36;;;;;;;20.47;54.82;98463.50;370339;142;879890;-60
2021/05/18 07:25:10;;;;;;;13.37;8.91;;;;;;;;;;363767;147;857135;-60
2021/05/18 07:26:12;;;;;;;12.47;9.11;;;;;;;;;;363681;147;857171;-60
2021/05/18 07:27:14;;;;;;;13.82;8.76;;;;;;;;;;360382;147;859122;-61
2021/05/18 07:28:16;;;;;;;10.36;8.47;;;;;;;;;;358490;149;857580;-61
2021/05/18 07:29:18;;;;;;;14.83;8.19;;;;;;;;;;363482;147;858896;-62
2021/05/18 07:30:21;;;;;;;10.80;7.52;;;;;;;;;;360611;146;866028;-61
2021/05/18 07:31:23;;;;;;;11.95;7.92;;;;;;;;;;360850;147;858905;-61
2021/05/18 07:32:25;;;;;;;13.19;8.20;;;;;;;;;;361885;146;859357;-61
2021/05/18 07:33:27;;;;;;;16.53;8.26;;;;;;;;;;364530;147;861038;-61
2021/05/18 07:34:29;;;;;;;7.97;7.02;;;;;;;;;;364351;147;859064;-62
2021/05/18 07:35:31;;;;;;;9.44;6.89;;;;;;;;;;364203;141;858608;-61
2021/05/18 07:36:33;;;;;;;11.18;6.90;;;;;;;;;;369626;143;858855;-62
2021/05/18 07:37:34;;;;;;;9.54;7.04;;;;;;;;;;367812;145;857622;-62
2021/05/18 07:38:40;;;;;;;11.42;7.27;;;;;;;;;;369931;142;857461;-62
2021/05/18 07:39:42;;;;;;;16.66;8.35;;;;;;;;;;368993;144;865886;-61
2021/05/18 07:40:44;;;;;;;9.14;7.51;;;;;;;;;;367332;144;858634;-62
2021/05/18 07:41:46;;;;;;;9.96;7.15;;;;;;;;;;370709;143;859662;-62
2021/05/18 07:42:53;;;;;;;13.81;8.26;;;;;;;;;;364828;144;857314;-62
2021/05/18 07:43:55;;;;;;;10.78;8.31;;;;;;;;;;362818;145;865156;-62
2021/05/18 07:44:56;;;;;;;11.86;8.46;;;;;;;;;;363924;146;857762;-62
2021/05/18 07:45:59;;;;;;;12.45;8.91;;;;;;;;;;362158;146;859145;-62
2021/05/18 07:47:02;;;;;;;11.23;7.96;;;;;;;;;;361907;145;860302;-62
2021/05/18 07:48:16;;;;;;;14.53;8.15;;;;;;;;;;364293;147;857377;-62
2021/05/18 07:50:22;;;;;;;10.38;7.77;;;;;;;;;;362212;145;858890;-62
2021/05/18 08:00:39;;;;;;;13.94;6.67;;;;;;;;;;363616;145;858583;-61
2021/05/18 08:05:33;;;;;;;14.04;7.09;;;;;;;;;;362620;147;865009;-60
2021/05/18 08:06:36;;;;;;;12.79;7.15;;;;;;;;;;361290;146;864999;-61
2021/05/18 08:07:38;;;;;;;11.83;7.35;;;;;;;;;;361959;147;865398;-61
2021/05/18 08:08:40;;;;;;;14.03;7.61;;;;;;;;;;362427;148;859733;-61
2021/05/18 08:09:49;;;;;;;11.05;7.67;;;;;;;;;;362507;145;857662;-61
2021/05/18 08:10:51;;;;;;;10.71;6.41;;;;;;;;;;356650;149;858455;-61
2021/05/18 08:11:53;;;;;;;13.78;6.81;;;;;;;;;;361476;147;857843;-61
2021/05/18 08:12:55;;;;;;;11.74;6.14;;;;;;;;;;362382;147;857640;-60
2021/05/18 08:13:57;;;;;;;8.44;6.93;;;;;;;;;;362110;148;860773;-61
2021/05/18 08:15:31;;;;;;;11.78;6.21;;;;;;;;;;362105;147;864909;-61
2021/05/18 08:17:35;;;;;;;7.91;5.43;;;;;;;;;;354160;152;857418;-61
2021/05/18 08:47:49;;;;;;;10.96;3.75;;;;;;;;;;363079;146;859468;-62
2021/05/18 12:47:03;;;;;;;1.92;1.18;;;;;;;19.71;60.02;98341.84;349574;152;881692;-56
2021/05/18 12:48:05;;;;;;;3.69;1.31;;;;;;;19.75;58.78;98342.47;345403;153;857377;-57
2021/05/18 12:49:07;;;;;;;2.79;1.39;;;;;;;19.96;58.63;98341.89;346972;150;857407;-59
2021/05/18 12:50:12;;;;;;;1.91;1.09;;;;;;;20.08;57.56;98342.77;346380;151;859096;-62
2021/05/18 12:51:21;;;;;;;4.97;1.39;;;;;;;20.08;56.93;98337.52;351579;149;857872;-61
2021/05/18 12:52:22;;;;;;;2.30;1.56;;;;;;;20.05;57.22;98349.11;354843;149;863662;-59
2021/05/18 12:53:25;;;;;;;4.09;1.83;;;;;;;20.05;57.33;98353.50;355388;149;856341;-59
2021/05/18 12:54:39;;;;;;;2.87;1.80;;;;;;;20.13;58.25;98346.75;354825;149;856431;-69
2021/05/18 12:55:43;;;;;;;4.03;1.90;;;;;;;20.29;58.41;98349.11;355853;149;856729;-61
2021/05/18 12:56:44;;;;;;;3.62;2.01;;;;;;;20.41;57.53;98354.41;354967;149;856380;-60
2021/05/18 12:57:53;;;;;;;5.44;1.77;;;;;;;20.49;57.92;98351.19;354932;149;856700;-61
2021/05/18 12:59:05;;;;;;;3.28;1.97;;;;;;;20.49;57.92;98351.19;353619;149;863742;-65
2021/05/18 13:00:11;;;;;;;9.62;2.95;;;;;;;20.69;57.01;98347.06;354527;149;856277;-67